Time;durP1;ratioP1;P1;durP2;ratioP2;P2;SDS_P1;SDS_P2;PMS_P1;PMS_P2;Temp;Humidity;BMP_temperature;BMP_pressure;BME280_temperature;BME280_humidity;BME280_pressure;Samples;Min_cycle;Max_cycle;Signal;HPM_P1;HPM_P2
2023/04/10 00:01:37;;;;;;;7.95;6.25;;;;;;;;;;5075874;28;20029;-55
2023/04/10 00:04:03;;;;;;;9.90;6.72;;;;;;;;;;5076035;28;20128;-57
2023/04/10 00:06:30;;;;;;;10.18;7.10;;;;;;;;;;5075830;28;20108;-55
2023/04/10 00:08:56;;;;;;;8.45;6.30;;;;;;;;;;5076480;28;20028;-57
2023/04/10 00:11:22;;;;;;;10.68;7.40;;;;;;;;;;5075662;28;20082;-56
2023/04/10 00:13:48;;;;;;;8.20;6.28;;;;;;;;;;5075727;28;20021;-56
2023/04/10 00:16:14;;;;;;;9.95;7.38;;;;;;;;;;5075907;28;20032;-54
2023/04/10 00:18:40;;;;;;;9.77;7.15;;;;;;;;;;5074297;28;20112;-56
2023/04/10 00:21:06;;;;;;;9.70;6.60;;;;;;;;;;5075757;28;20108;-53
2023/04/10 00:23:33;;;;;;;9.65;6.30;;;;;;;;;;5075981;28;20025;-52
2023/04/10 00:25:59;;;;;;;9.20;6.53;;;;;;;;;;5076214;28;20086;-57
2023/04/10 00:28:25;;;;;;;9.52;7.03;;;;;;;;;;5076106;28;20032;-56
2023/04/10 00:30:51;;;;;;;8.68;5.90;;;;;;;;;;5075048;28;20025;-52
2023/04/10 00:33:17;;;;;;;12.23;6.95;;;;;;;;;;5075534;28;20051;-57
2023/04/10 00:35:43;;;;;;;10.00;6.95;;;;;;;;;;5075473;28;20374;-55
2023/04/10 00:38:09;;;;;;;9.70;7.28;;;;;;;;;;5075063;28;20116;-56
2023/04/10 00:40:35;;;;;;;8.90;6.85;;;;;;;;;;5075086;28;20401;-53
2023/04/10 00:43:01;;;;;;;9.55;7.15;;;;;;;;;;5074958;28;20377;-56
2023/04/10 00:45:27;;;;;;;11.23;8.20;;;;;;;;;;5075333;28;20111;-57
2023/04/10 00:47:54;;;;;;;9.00;7.65;;;;;;;;;;5075655;28;20123;-57
2023/04/10 00:50:21;;;;;;;10.43;7.32;;;;;;;;;;5074947;28;20440;-56
2023/04/10 00:52:47;;;;;;;10.15;7.07;;;;;;;;;;5074534;28;20466;-57
2023/04/10 00:55:14;;;;;;;9.18;7.07;;;;;;;;;;5074481;28;20042;-53
2023/04/10 00:57:44;;;;;;;9.75;8.40;;;;;;;;;;5074699;28;20036;-57
2023/04/10 01:00:10;;;;;;;13.20;7.93;;;;;;;;;;5074674;28;20198;-56
2023/04/10 01:02:36;;;;;;;8.52;6.80;;;;;;;;;;5074725;28;20378;-56
2023/04/10 01:05:02;;;;;;;10.05;7.88;;;;;;;;;;5074992;28;20029;-54
2023/04/10 01:07:46;;;;;;;12.55;7.35;;;;;;;;;;5074945;28;20099;-57
2023/04/10 01:10:20;;;;;;;8.77;7.07;;;;;;;;;;5074877;28;20040;-55
2023/04/10 01:12:55;;;;;;;11.02;7.72;;;;;;;;;;5074902;28;20028;-55
2023/04/10 01:15:23;;;;;;;8.40;6.00;;;;;;;;;;5074792;28;20511;-54
2023/04/10 01:17:49;;;;;;;10.20;6.65;;;;;;;;;;5074426;28;20021;-54
2023/04/10 01:20:18;;;;;;;9.30;6.50;;;;;;;;;;5074363;28;20024;-56
2023/04/10 01:22:56;;;;;;;8.88;6.88;;;;;;;;;;5074060;28;20025;-56
2023/04/10 01:25:38;;;;;;;8.57;6.90;;;;;;;;;;5074092;28;20517;-57
2023/04/10 01:28:08;;;;;;;11.35;7.35;;;;;;;;;;5074724;28;20039;-56
2023/04/10 01:30:35;;;;;;;10.45;6.60;;;;;;;;;;5073846;28;20070;-56
2023/04/10 01:33:01;;;;;;;9.77;7.10;;;;;;;;;;5074487;28;20028;-56
2023/04/10 01:35:28;;;;;;;9.40;6.75;;;;;;;;;;5074641;28;20036;-56
2023/04/10 01:37:55;;;;;;;7.30;6.28;;;;;;;;;;5074282;28;20458;-54
2023/04/10 01:40:21;;;;;;;7.93;6.78;;;;;;;;;;5074077;28;20401;-57
2023/04/10 01:42:50;;;;;;;9.68;6.88;;;;;;;;;;5074086;28;20024;-53
2023/04/10 01:45:18;;;;;;;8.82;6.70;;;;;;;;;;5074597;28;20024;-56
2023/04/10 01:47:44;;;;;;;9.70;6.60;;;;;;;;;;5074799;28;20032;-55
2023/04/10 01:50:11;;;;;;;8.98;6.22;;;;;;;;;;5074447;28;20033;-53
2023/04/10 01:52:37;;;;;;;10.18;7.65;;;;;;;;;;5073669;28;20025;-55
2023/04/10 01:55:04;;;;;;;10.10;7.72;;;;;;;;;;5073968;28;20059;-54
2023/04/10 01:57:30;;;;;;;8.55;6.63;;;;;;;;;;5074411;28;20358;-56
2023/04/10 01:59:56;;;;;;;8.15;6.65;;;;;;;;;;5073493;28;20028;-55
2023/04/10 02:02:22;;;;;;;7.53;5.85;;;;;;;;;;5073845;28;20033;-56
2023/04/10 02:04:51;;;;;;;8.40;6.72;;;;;;;;;;5073483;28;20497;-54
2023/04/10 02:07:20;;;;;;;9.50;6.72;;;;;;;;;;5073559;28;20497;-56
2023/04/10 02:09:46;;;;;;;6.70;5.40;;;;;;;;;;5073721;28;20024;-55
2023/04/10 02:12:16;;;;;;;8.50;6.13;;;;;;;;;;5073758;28;20035;-55
2023/04/10 02:14:43;;;;;;;10.27;6.90;;;;;;;;;;5073781;28;20053;-57
2023/04/10 02:17:10;;;;;;;9.93;6.50;;;;;;;;;;5073677;28;20078;-56
2023/04/10 02:19:37;;;;;;;5.93;5.32;;;;;;;;;;5073586;28;20035;-56
2023/04/10 02:22:05;;;;;;;5.95;5.28;;;;;;;;;;5073643;28;20036;-56
2023/04/10 02:24:32;;;;;;;8.98;5.03;;;;;;;;;;5073153;28;20040;-56
2023/04/10 02:26:58;;;;;;;9.85;6.53;;;;;;;;;;5073916;28;20052;-54
2023/04/10 02:29:24;;;;;;;10.35;5.53;;;;;;;;;;5073260;28;20063;-56
2023/04/10 02:31:50;;;;;;;7.45;6.15;;;;;;;;;;5073479;28;20367;-55
2023/04/10 02:34:16;;;;;;;11.20;6.35;;;;;;;;;;5073742;28;20108;-57
2023/04/10 02:36:42;;;;;;;7.03;5.93;;;;;;;;;;5073567;28;20032;-54
2023/04/10 02:39:08;;;;;;;8.43;5.38;;;;;;;;;;5073424;28;20467;-55
2023/04/10 02:41:34;;;;;;;6.95;5.70;;;;;;;;;;5075171;28;20461;-54
2023/04/10 02:44:00;;;;;;;8.40;6.90;;;;;;;;;;5077637;28;20024;-57
2023/04/10 02:46:26;;;;;;;7.45;5.43;;;;;;;;;;5077704;28;20025;-57
2023/04/10 02:48:52;;;;;;;8.77;6.22;;;;;;;;;;5077301;28;20021;-56
2023/04/10 02:51:18;;;;;;;8.27;5.70;;;;;;;;;;5077545;28;20102;-54
2023/04/10 02:53:44;;;;;;;8.32;6.18;;;;;;;;;;5077114;28;20079;-53
2023/04/10 02:56:11;;;;;;;8.43;5.07;;;;;;;;;;5077704;28;20028;-53
2023/04/10 02:58:38;;;;;;;7.90;5.95;;;;;;;;;;5077107;28;20040;-54
2023/04/10 03:01:05;;;;;;;7.30;5.35;;;;;;;;;;5077060;28;20420;-56
2023/04/10 03:03:31;;;;;;;7.10;5.80;;;;;;;;;;5076988;28;20031;-57
2023/04/10 03:05:57;;;;;;;7.78;5.93;;;;;;;;;;5076993;28;20025;-55
2023/04/10 03:08:23;;;;;;;10.98;7.60;;;;;;;;;;5077205;28;20025;-55
2023/04/10 03:10:49;;;;;;;9.30;6.15;;;;;;;;;;5077443;28;20028;-54
2023/04/10 03:13:16;;;;;;;7.72;5.72;;;;;;;;;;5077880;28;20128;-56
2023/04/10 03:15:42;;;;;;;6.32;4.75;;;;;;;;;;5077634;28;20071;-54
2023/04/10 03:18:08;;;;;;;9.90;6.53;;;;;;;;;;5077556;28;20063;-56
2023/04/10 03:20:37;;;;;;;8.52;6.38;;;;;;;;;;5076718;28;20071;-57
2023/04/10 03:23:04;;;;;;;6.30;4.90;;;;;;;;;;5077415;28;20073;-56
2023/04/10 03:25:31;;;;;;;10.05;6.72;;;;;;;;;;5077437;28;20366;-54
2023/04/10 03:27:57;;;;;;;6.47;5.78;;;;;;;;;;5076613;28;20113;-57
2023/04/10 03:30:23;;;;;;;9.02;6.38;;;;;;;;;;5076497;28;20090;-56
2023/04/10 03:32:49;;;;;;;10.07;5.95;;;;;;;;;;5076884;28;20111;-53
2023/04/10 03:35:14;;;;;;;7.30;5.32;;;;;;;;;;5076507;28;20108;-54
2023/04/10 03:37:41;;;;;;;7.68;5.18;;;;;;;;;;5076517;28;20039;-56
2023/04/10 03:40:08;;;;;;;8.73;6.55;;;;;;;;;;5076353;28;20191;-54
2023/04/10 03:42:34;;;;;;;7.43;6.30;;;;;;;;;;5076685;28;20024;-55
2023/04/10 03:45:03;;;;;;;9.05;6.72;;;;;;;;;;5076325;28;20044;-52
2023/04/10 03:47:29;;;;;;;7.70;6.05;;;;;;;;;;5076295;28;20082;-54
2023/04/10 03:49:55;;;;;;;7.32;5.60;;;;;;;;;;5076582;28;20464;-51
2023/04/10 03:52:21;;;;;;;6.78;5.28;;;;;;;;;;5075424;28;20024;-51
2023/04/10 03:54:47;;;;;;;7.60;5.70;;;;;;;;;;5076086;28;20071;-51
2023/04/10 03:57:13;;;;;;;9.40;5.93;;;;;;;;;;5076464;28;20032;-52
2023/04/10 03:59:39;;;;;;;8.00;5.80;;;;;;;;;;5076075;28;20020;-53
2023/04/10 04:02:06;;;;;;;5.70;4.53;;;;;;;;;;5075772;28;20025;-52
2023/04/10 04:04:32;;;;;;;9.50;6.68;;;;;;;;;;5076045;28;20040;-54
2023/04/10 04:06:58;;;;;;;7.40;5.97;;;;;;;;;;5076517;28;20370;-53
2023/04/10 04:09:24;;;;;;;9.60;5.63;;;;;;;;;;5075946;28;20073;-52
2023/04/10 04:11:50;;;;;;;8.75;5.68;;;;;;;;;;5076184;28;20028;-52
2023/04/10 04:14:16;;;;;;;7.25;5.85;;;;;;;;;;5075780;28;20049;-50
2023/04/10 04:16:42;;;;;;;8.55;6.60;;;;;;;;;;5075717;28;20021;-50
2023/04/10 04:19:08;;;;;;;7.70;5.70;;;;;;;;;;5075682;28;20027;-57
2023/04/10 04:21:33;;;;;;;9.68;6.55;;;;;;;;;;5075616;28;20016;-56
2023/04/10 04:24:00;;;;;;;9.75;7.05;;;;;;;;;;5075610;28;20064;-55
2023/04/10 04:26:26;;;;;;;8.23;5.97;;;;;;;;;;5075838;28;20438;-52
2023/04/10 04:28:52;;;;;;;8.70;6.35;;;;;;;;;;5075504;28;20032;-53
2023/04/10 04:31:18;;;;;;;9.52;6.63;;;;;;;;;;5075984;28;20031;-53
2023/04/10 04:33:44;;;;;;;10.85;6.45;;;;;;;;;;5075389;28;20023;-54
2023/04/10 04:36:10;;;;;;;9.18;6.80;;;;;;;;;;5075327;28;20028;-53
2023/04/10 04:38:36;;;;;;;8.45;6.82;;;;;;;;;;5074992;28;20032;-57
2023/04/10 04:41:02;;;;;;;7.53;5.80;;;;;;;;;;5075318;28;20126;-54
2023/04/10 04:43:27;;;;;;;9.18;6.07;;;;;;;;;;5075465;28;20106;-53
2023/04/10 04:45:53;;;;;;;7.10;6.22;;;;;;;;;;5076054;28;20036;-56
2023/04/10 04:48:20;;;;;;;9.93;6.05;;;;;;;;;;5075145;28;20025;-50
2023/04/10 04:50:46;;;;;;;10.45;6.38;;;;;;;;;;5075862;28;20351;-51
2023/04/10 04:53:12;;;;;;;9.18;6.65;;;;;;;;;;5075336;28;20032;-50
2023/04/10 04:55:38;;;;;;;7.20;5.22;;;;;;;;;;5075472;28;20075;-52
2023/04/10 04:58:04;;;;;;;8.60;5.53;;;;;;;;;;5075455;28;20052;-50
2023/04/10 05:00:30;;;;;;;7.85;6.38;;;;;;;;;;5074820;28;20025;-50
2023/04/10 05:02:56;;;;;;;8.38;6.65;;;;;;;;;;5074521;28;20443;-52
2023/04/10 05:05:23;;;;;;;8.75;6.78;;;;;;;;;;5074754;28;20033;-52
2023/04/10 05:07:49;;;;;;;9.70;5.22;;;;;;;;;;5075076;28;20382;-52
2023/04/10 05:10:15;;;;;;;9.95;7.28;;;;;;;;;;5074645;28;20033;-52
2023/04/10 05:12:42;;;;;;;7.82;5.90;;;;;;;;;;5074635;28;20024;-52
2023/04/10 05:15:08;;;;;;;8.00;6.32;;;;;;;;;;5074306;28;20055;-51
2023/04/10 05:17:34;;;;;;;8.85;6.30;;;;;;;;;;5074841;28;20035;-52
2023/04/10 05:20:00;;;;;;;10.80;7.00;;;;;;;;;;5074470;28;20481;-54
2023/04/10 05:22:27;;;;;;;9.15;6.57;;;;;;;;;;5074476;28;20016;-55
2023/04/10 05:24:54;;;;;;;10.05;6.00;;;;;;;;;;5074918;28;20119;-54
2023/04/10 05:27:20;;;;;;;8.85;7.13;;;;;;;;;;5074949;28;20111;-53
2023/04/10 05:29:46;;;;;;;8.15;5.93;;;;;;;;;;5074872;28;20036;-55
2023/04/10 05:32:12;;;;;;;9.35;6.78;;;;;;;;;;5075082;28;20401;-53
2023/04/10 05:34:38;;;;;;;9.48;6.72;;;;;;;;;;5074462;28;20033;-57
2023/04/10 05:37:04;;;;;;;9.73;5.97;;;;;;;;;;5074575;28;20085;-56
2023/04/10 05:39:30;;;;;;;8.63;6.57;;;;;;;;;;5074667;28;20039;-57
2023/04/10 05:41:57;;;;;;;9.20;6.32;;;;;;;;;;5074221;28;20374;-56
2023/04/10 05:44:23;;;;;;;10.90;6.63;;;;;;;;;;5074121;28;20127;-57
2023/04/10 05:46:49;;;;;;;9.05;6.70;;;;;;;;;;5074938;28;20021;-57
2023/04/10 05:49:15;;;;;;;6.72;5.32;;;;;;;;;;5074089;28;20025;-53
2023/04/10 05:51:41;;;;;;;9.52;6.40;;;;;;;;;;5073959;28;20029;-54
2023/04/10 05:54:07;;;;;;;6.97;5.35;;;;;;;;;;5073935;28;20384;-56
2023/04/10 05:56:33;;;;;;;7.82;5.78;;;;;;;;;;5074334;28;20035;-55
2023/04/10 05:58:59;;;;;;;8.98;6.25;;;;;;;;;;5074019;28;20102;-54
2023/04/10 06:01:25;;;;;;;7.97;6.03;;;;;;;;;;5074446;28;20029;-51
2023/04/10 06:03:51;;;;;;;8.23;5.93;;;;;;;;;;5073861;28;20031;-52
2023/04/10 06:06:17;;;;;;;7.97;5.95;;;;;;;;;;5073888;28;20020;-53
2023/04/10 06:08:43;;;;;;;9.60;5.90;;;;;;;;;;5073821;28;20028;-54
2023/04/10 06:11:09;;;;;;;8.10;5.63;;;;;;;;;;5074300;28;20401;-54
2023/04/10 06:13:35;;;;;;;9.38;6.85;;;;;;;;;;5074192;28;20052;-50
2023/04/10 06:16:01;;;;;;;10.02;5.97;;;;;;;;;;5073086;28;20090;-54
2023/04/10 06:18:27;;;;;;;7.30;5.30;;;;;;;;;;5073678;28;20036;-53
2023/04/10 06:20:55;;;;;;;7.78;5.88;;;;;;;;;;5073935;28;20032;-54
2023/04/10 06:23:21;;;;;;;8.40;5.97;;;;;;;;;;5073579;28;20370;-53
2023/04/10 06:25:47;;;;;;;8.68;6.80;;;;;;;;;;5074473;28;20029;-51
2023/04/10 06:28:13;;;;;;;9.45;6.85;;;;;;;;;;5073606;28;20489;-51
2023/04/10 06:30:39;;;;;;;9.15;6.22;;;;;;;;;;5073541;28;20359;-55
2023/04/10 06:33:05;;;;;;;8.75;5.53;;;;;;;;;;5073532;28;20028;-55
2023/04/10 06:35:31;;;;;;;5.93;4.57;;;;;;;;;;5073793;28;20036;-56
2023/04/10 06:37:57;;;;;;;8.38;5.65;;;;;;;;;;5074051;28;20056;-52
2023/04/10 06:40:23;;;;;;;7.05;5.60;;;;;;;;;;5073514;28;20113;-52
2023/04/10 06:42:49;;;;;;;6.45;5.00;;;;;;;;;;5073998;28;20020;-56
2023/04/10 06:45:15;;;;;;;8.20;6.32;;;;;;;;;;5074266;28;20124;-55
2023/04/10 06:47:41;;;;;;;11.63;5.07;;;;;;;;;;5073396;28;20056;-55
2023/04/10 06:50:07;;;;;;;6.53;5.30;;;;;;;;;;5073458;28;20078;-54
2023/04/10 06:52:33;;;;;;;7.70;5.78;;;;;;;;;;5072156;28;20422;-53
2023/04/10 06:54:59;;;;;;;7.40;6.20;;;;;;;;;;5073507;28;20028;-55
2023/04/10 06:57:25;;;;;;;7.00;4.95;;;;;;;;;;5073345;28;20107;-54
2023/04/10 06:59:51;;;;;;;6.30;5.43;;;;;;;;;;5074093;28;20086;-55
2023/04/10 07:02:17;;;;;;;7.20;5.40;;;;;;;;;;5073342;28;20029;-57
2023/04/10 07:04:43;;;;;;;8.40;5.63;;;;;;;;;;5073336;28;20450;-56
2023/04/10 07:07:11;;;;;;;8.07;5.47;;;;;;;;;;5073339;28;20382;-56
2023/04/10 07:09:37;;;;;;;7.93;5.93;;;;;;;;;;5073216;28;20064;-55
2023/04/10 07:12:03;;;;;;;11.45;6.97;;;;;;;;;;5073532;28;20154;-55
2023/04/10 07:14:29;;;;;;;7.47;5.63;;;;;;;;;;5073253;28;20056;-54
2023/04/10 07:16:55;;;;;;;11.35;6.10;;;;;;;;;;5073182;28;20025;-54
2023/04/10 07:19:21;;;;;;;21.13;9.23;;;;;;;;;;5073115;28;20378;-51
2023/04/10 07:21:49;;;;;;;6.82;4.82;;;;;;;;;;5073644;28;20029;-53
2023/04/10 07:24:16;;;;;;;8.63;5.65;;;;;;;;;;5073014;28;20032;-57
2023/04/10 07:26:42;;;;;;;6.03;4.57;;;;;;;;;;5073210;28;20539;-56
2023/04/10 07:29:08;;;;;;;7.30;5.55;;;;;;;;;;5076491;28;20099;-57
2023/04/10 07:31:34;;;;;;;6.70;5.25;;;;;;;;;;5076353;28;20025;-55
2023/04/10 07:34:00;;;;;;;6.45;4.00;;;;;;;;;;5076275;28;20425;-56
2023/04/10 07:36:26;;;;;;;7.90;5.18;;;;;;;;;;5076866;28;20032;-54
2023/04/10 07:38:52;;;;;;;7.15;4.82;;;;;;;;;;5076367;28;20078;-55
2023/04/10 07:41:18;;;;;;;9.38;4.70;;;;;;;;;;5076104;28;20028;-58
2023/04/10 07:43:44;;;;;;;8.85;4.80;;;;;;;;;;5076305;28;20024;-56
2023/04/10 07:46:10;;;;;;;7.43;5.10;;;;;;;;;;5076590;28;20075;-56
2023/04/10 07:48:36;;;;;;;5.53;4.32;;;;;;;;;;5076274;28;20029;-55
2023/04/10 07:51:02;;;;;;;4.30;3.55;;;;;;;;;;5075904;28;20372;-56
2023/04/10 07:53:29;;;;;;;5.63;4.55;;;;;;;;;;5076241;28;20025;-54
2023/04/10 07:55:55;;;;;;;5.50;4.55;;;;;;;;;;5076295;28;20056;-56
2023/04/10 07:58:21;;;;;;;6.78;5.00;;;;;;;;;;5076071;28;20024;-54
2023/04/10 08:00:47;;;;;;;5.97;4.28;;;;;;;;;;5076114;28;20047;-54
2023/04/10 08:03:14;;;;;;;8.55;4.82;;;;;;;;;;5075808;28;20462;-52
2023/04/10 08:05:40;;;;;;;5.72;4.22;;;;;;;;;;5076544;28;20421;-56
2023/04/10 08:08:06;;;;;;;5.80;4.10;;;;;;;;;;5075788;28;20040;-56
2023/04/10 08:10:32;;;;;;;7.90;4.22;;;;;;;;;;5075862;28;20032;-55
2023/04/10 08:12:58;;;;;;;8.55;4.97;;;;;;;;;;5076386;28;20025;-55
2023/04/10 08:15:24;;;;;;;6.78;4.75;;;;;;;;;;5075625;28;20119;-55
2023/04/10 08:17:50;;;;;;;5.75;3.67;;;;;;;;;;5075637;28;20029;-56
2023/04/10 08:20:16;;;;;;;7.13;4.47;;;;;;;;;;5075376;28;20393;-54
2023/04/10 08:22:42;;;;;;;6.40;4.50;;;;;;;;;;5075908;28;20020;-56
2023/04/10 08:25:08;;;;;;;5.75;3.50;;;;;;;;;;5075580;28;20032;-56
2023/04/10 08:27:34;;;;;;;6.25;3.45;;;;;;;;;;5075456;28;20069;-54
2023/04/10 08:30:00;;;;;;;5.38;4.05;;;;;;;;;;5075463;28;20129;-56
2023/04/10 08:32:28;;;;;;;5.28;3.92;;;;;;;;;;5076008;28;20177;-55
2023/04/10 08:34:54;;;;;;;4.57;3.17;;;;;;;;;;5075238;28;20082;-53
2023/04/10 08:37:20;;;;;;;4.47;3.15;;;;;;;;;;5075812;28;20028;-55
2023/04/10 08:39:46;;;;;;;4.95;3.40;;;;;;;;;;5075045;28;20032;-55
2023/04/10 08:42:12;;;;;;;4.72;3.33;;;;;;;;;;5075423;28;20024;-54
2023/04/10 08:44:38;;;;;;;5.80;3.05;;;;;;;;;;5075138;28;20025;-55
2023/04/10 08:47:05;;;;;;;5.28;3.80;;;;;;;;;;5075229;28;20060;-54
2023/04/10 08:49:31;;;;;;;4.60;2.78;;;;;;;;;;5075723;28;20021;-53
2023/04/10 08:52:01;;;;;;;6.95;4.10;;;;;;;;;;5075100;28;20029;-54
2023/04/10 08:54:28;;;;;;;4.82;3.10;;;;;;;;;;5074900;28;20095;-56
2023/04/10 08:56:55;;;;;;;4.18;2.83;;;;;;;;;;5075216;28;20028;-56
2023/04/10 08:59:21;;;;;;;4.30;2.80;;;;;;;;;;5074889;28;20027;-55
2023/04/10 09:01:47;;;;;;;4.05;2.83;;;;;;;;;;5074664;28;20490;-52
2023/04/10 09:04:15;;;;;;;3.33;2.50;;;;;;;;;;5075044;28;20040;-53
2023/04/10 09:06:41;;;;;;;3.67;2.92;;;;;;;;;;5075167;28;20058;-56
2023/04/10 09:09:07;;;;;;;3.78;2.50;;;;;;;;;;5074616;28;20074;-53
2023/04/10 09:11:51;;;;;;;4.47;3.05;;;;;;;;;;5074614;28;20352;-54
2023/04/10 09:14:21;;;;;;;4.25;2.75;;;;;;;;;;5075167;28;20459;-56
2023/04/10 09:16:47;;;;;;;4.27;2.43;;;;;;;;;;5074610;28;20024;-54
2023/04/10 09:19:13;;;;;;;4.90;2.97;;;;;;;;;;5074803;28;20462;-56
2023/04/10 09:21:49;;;;;;;3.70;2.30;;;;;;;;;;5075011;28;20130;-56
2023/04/10 09:24:15;;;;;;;4.10;2.92;;;;;;;;;;5074768;28;20541;-56
2023/04/10 09:26:41;;;;;;;3.60;2.20;;;;;;;;;;5075029;28;20067;-53
2023/04/10 09:29:09;;;;;;;4.50;3.15;;;;;;;;;;5074711;28;20377;-55
2023/04/10 09:31:36;;;;;;;4.03;2.72;;;;;;;;;;5074235;28;20070;-56
2023/04/10 09:34:09;;;;;;;4.05;2.25;;;;;;;;;;5074488;28;20052;-52
2023/04/10 09:36:36;;;;;;;6.00;2.58;;;;;;;;;;5074831;28;20025;-54
2023/04/10 09:39:03;;;;;;;4.45;2.53;;;;;;;;;;5074085;28;20047;-55
2023/04/10 09:41:29;;;;;;;3.50;2.30;;;;;;;;;;5073823;28;20029;-55
2023/04/10 09:44:08;;;;;;;4.10;2.10;;;;;;;;;;5074172;28;20032;-53
2023/04/10 09:46:34;;;;;;;3.22;2.15;;;;;;;;;;5074426;28;20035;-55
2023/04/10 09:49:03;;;;;;;3.85;2.33;;;;;;;;;;5073846;28;20029;-53
2023/04/10 09:51:30;;;;;;;3.30;2.15;;;;;;;;;;5073865;28;20035;-55
2023/04/10 09:53:56;;;;;;;3.92;2.42;;;;;;;;;;5073866;28;20035;-52
2023/04/10 09:56:22;;;;;;;4.53;2.50;;;;;;;;;;5074258;28;20513;-56
2023/04/10 09:58:49;;;;;;;2.78;1.85;;;;;;;;;;5073930;28;20077;-56
2023/04/10 10:01:15;;;;;;;3.47;2.08;;;;;;;;;;5073791;28;20029;-54
2023/04/10 10:03:41;;;;;;;7.20;2.45;;;;;;;;;;5073922;28;20374;-53
2023/04/10 10:06:08;;;;;;;2.30;1.75;;;;;;;;;;5073936;28;20028;-51
2023/04/10 10:08:34;;;;;;;3.42;2.15;;;;;;;;;;5074537;28;20047;-55
2023/04/10 10:11:05;;;;;;;2.33;1.60;;;;;;;;;;5073938;28;20477;-56
2023/04/10 10:13:31;;;;;;;;;;;;;;;;;;5075311;28;20457;-55
2023/04/10 10:16:08;;;;;;;2.28;1.42;;;;;;;;;;5073273;28;20019;-56
2023/04/10 10:18:42;;;;;;;1.83;1.10;;;;;;;;;;5074055;28;20123;-55
2023/04/10 10:21:09;;;;;;;2.13;1.23;;;;;;;;;;5073670;28;20028;-56
2023/04/10 10:23:36;;;;;;;1.90;1.17;;;;;;;;;;5073954;28;20020;-55
2023/04/10 10:26:05;;;;;;;3.05;1.33;;;;;;;;;;5074233;28;20025;-56
2023/04/10 10:28:33;;;;;;;2.22;1.42;;;;;;;;;;5074401;28;20024;-56
2023/04/10 10:31:00;;;;;;;2.90;1.77;;;;;;;;;;5073584;28;20036;-55
2023/04/10 10:33:27;;;;;;;2.70;1.48;;;;;;;;;;5073618;28;20054;-56
2023/04/10 10:35:53;;;;;;;2.17;1.25;;;;;;;;;;5074149;28;20056;-56
2023/04/10 10:38:19;;;;;;;1.67;1.02;;;;;;;;;;5073480;28;20067;-57
2023/04/10 10:40:48;;;;;;;3.40;1.77;;;;;;;;;;5073799;28;20344;-57
2023/04/10 10:43:17;;;;;;;2.58;1.38;;;;;;;;;;5073445;28;20025;-56
2023/04/10 10:45:52;;;;;;;2.80;1.52;;;;;;;;;;5073822;28;20048;-56
2023/04/10 10:48:18;;;;;;;2.38;1.48;;;;;;;;;;5073458;28;20029;-56
2023/04/10 10:50:57;;;;;;;2.10;1.38;;;;;;;;;;5073472;28;20035;-56
2023/04/10 10:53:43;;;;;;;2.42;1.17;;;;;;;;;;5073024;28;20462;-57
2023/04/10 10:56:18;;;;;;;2.40;1.20;;;;;;;;;;5073388;28;20033;-56
2023/04/10 10:58:50;;;;;;;2.53;1.00;;;;;;;;;;5073402;28;20032;-57
2023/04/10 11:01:17;;;;;;;2.17;1.10;;;;;;;;;;5073588;28;20032;-57
2023/04/10 11:03:44;;;;;;;1.63;1.02;;;;;;;;;;5077331;28;20028;-56
2023/04/10 11:06:11;;;;;;;3.13;1.25;;;;;;;;;;5077685;28;20025;-56
2023/04/10 11:08:45;;;;;;;2.78;1.35;;;;;;;;;;5076696;28;20024;-55
2023/04/10 11:11:24;;;;;;;1.40;0.80;;;;;;;;;;5077413;28;20020;-56
2023/04/10 11:13:56;;;;;;;2.30;1.10;;;;;;;;;;5076669;28;20070;-56
2023/04/10 11:16:43;;;;;;;1.75;1.17;;;;;;;;;;5076929;28;20036;-56
2023/04/10 11:19:11;;;;;;;1.60;0.90;;;;;;;;;;5076959;28;20032;-56
2023/04/10 11:21:58;;;;;;;1.60;0.70;;;;;;;;;;5076754;28;20506;-55
2023/04/10 11:24:24;;;;;;;2.20;1.05;;;;;;;;;;5076631;28;20039;-57
2023/04/10 11:26:50;;;;;;;1.63;0.77;;;;;;;;;;5076425;28;20025;-57
2023/04/10 11:29:16;;;;;;;2.08;1.20;;;;;;;;;;5077244;28;20040;-56
2023/04/10 11:31:43;;;;;;;1.45;0.77;;;;;;;;;;5076990;28;20020;-56
2023/04/10 11:34:09;;;;;;;1.33;0.55;;;;;;;;;;5077053;28;20678;-56
2023/04/10 11:36:38;;;;;;;2.42;1.17;;;;;;;;;;5076343;28;20524;-56
2023/04/10 11:39:07;;;;;;;2.22;0.85;;;;;;;;;;5076462;28;20116;-57
2023/04/10 11:41:35;;;;;;;0.98;0.60;;;;;;;;;;5076403;28;20463;-57
2023/04/10 11:44:02;;;;;;;1.27;0.52;;;;;;;;;;5076353;28;20032;-57
2023/04/10 11:46:28;;;;;;;1.95;0.95;;;;;;;;;;5077028;28;20028;-57
2023/04/10 11:49:01;;;;;;;1.70;1.10;;;;;;;;;;5076349;28;20020;-57
2023/04/10 11:51:27;;;;;;;1.45;0.82;;;;;;;;;;5076235;28;20074;-57
2023/04/10 11:54:12;;;;;;;1.50;0.68;;;;;;;;;;5076208;28;20027;-56
2023/04/10 11:56:39;;;;;;;2.15;0.60;;;;;;;;;;5076715;28;20379;-56
2023/04/10 11:59:09;;;;;;;1.30;0.45;;;;;;;;;;5076069;28;20447;-57
2023/04/10 12:01:36;;;;;;;1.33;0.60;;;;;;;;;;5076150;28;20520;-57
2023/04/10 12:04:02;;;;;;;0.65;0.30;;;;;;;;;;5076619;28;20029;-56
2023/04/10 12:06:28;;;;;;;0.88;0.35;;;;;;;;;;5076413;28;20028;-57
2023/04/10 12:08:54;;;;;;;2.75;0.52;;;;;;;;;;5076290;28;20395;-57
2023/04/10 12:11:21;;;;;;;4.18;0.60;;;;;;;;;;5076208;28;20147;-57
2023/04/10 12:13:48;;;;;;;0.70;0.30;;;;;;;;;;5075286;28;20078;-56
2023/04/10 12:16:14;;;;;;;1.55;0.50;;;;;;;;;;5076125;28;20141;-56
2023/04/10 12:18:40;;;;;;;0.93;0.43;;;;;;;;;;5075751;28;20132;-56
2023/04/10 12:21:07;;;;;;;0.80;0.38;;;;;;;;;;5075773;28;20420;-56
2023/04/10 12:23:33;;;;;;;1.42;0.60;;;;;;;;;;5075698;28;20459;-57
2023/04/10 12:26:08;;;;;;;0.85;0.30;;;;;;;;;;5075945;28;20125;-56
2023/04/10 12:28:35;;;;;;;1.15;0.63;;;;;;;;;;5076064;28;20020;-57
2023/04/10 12:31:02;;;;;;;1.13;0.43;;;;;;;;;;5075515;28;20059;-57
2023/04/10 12:33:28;;;;;;;1.52;0.70;;;;;;;;;;5075420;28;20025;-57
2023/04/10 12:35:54;;;;;;;1.67;0.40;;;;;;;;;;5075978;28;20033;-56
2023/04/10 12:38:39;;;;;;;1.00;0.57;;;;;;;;;;5075368;28;20036;-57
2023/04/10 12:41:06;;;;;;;0.90;0.40;;;;;;;;;;5075294;28;20028;-57
2023/04/10 12:43:36;;;;;;;1.15;0.50;;;;;;;;;;5075254;28;20040;-58
2023/04/10 12:46:04;;;;;;;1.60;0.77;;;;;;;;;;5075796;28;20020;-57
2023/04/10 12:48:30;;;;;;;1.48;0.60;;;;;;;;;;5074994;28;20123;-57
2023/04/10 12:50:56;;;;;;;1.38;0.40;;;;;;;;;;5075210;28;20067;-56
2023/04/10 12:53:22;;;;;;;1.08;0.50;;;;;;;;;;5074966;28;20021;-57
2023/04/10 12:56:02;;;;;;;0.93;0.50;;;;;;;;;;5074855;28;20119;-57
2023/04/10 12:58:29;;;;;;;1.38;0.63;;;;;;;;;;5075232;28;20025;-57
2023/04/10 13:00:56;;;;;;;1.58;0.60;;;;;;;;;;5075108;28;20451;-57
2023/04/10 13:03:22;;;;;;;1.08;0.40;;;;;;;;;;5074896;28;20021;-57
2023/04/10 13:05:48;;;;;;;2.53;0.70;;;;;;;;;;5075409;28;20032;-57
2023/04/10 13:08:14;;;;;;;0.77;0.50;;;;;;;;;;5074779;28;20478;-57
2023/04/10 13:10:42;;;;;;;0.85;0.40;;;;;;;;;;5074595;28;20028;-57
2023/04/10 13:13:10;;;;;;;1.17;0.55;;;;;;;;;;5074560;28;20024;-57
2023/04/10 13:15:36;;;;;;;1.63;0.77;;;;;;;;;;5075588;28;20099;-56
2023/04/10 13:18:02;;;;;;;1.92;0.90;;;;;;;;;;5074574;28;20029;-57
2023/04/10 13:20:29;;;;;;;1.55;0.70;;;;;;;;;;5074745;28;20446;-56
2023/04/10 13:22:55;;;;;;;1.65;0.80;;;;;;;;;;5074778;28;20451;-57
2023/04/10 13:25:21;;;;;;;1.80;0.75;;;;;;;;;;5074313;28;20035;-57
2023/04/10 13:27:47;;;;;;;1.02;0.50;;;;;;;;;;5074917;28;20020;-57
2023/04/10 13:30:13;;;;;;;1.80;1.08;;;;;;;;;;5074359;28;20435;-57
2023/04/10 13:32:39;;;;;;;1.60;0.95;;;;;;;;;;5074506;28;20086;-56
2023/04/10 13:35:06;;;;;;;2.33;0.77;;;;;;;;;;5074121;28;20052;-57
2023/04/10 13:37:32;;;;;;;3.28;1.15;;;;;;;;;;5074753;28;20030;-57
2023/04/10 13:39:58;;;;;;;1.58;0.70;;;;;;;;;;5074195;28;20016;-56
2023/04/10 13:42:24;;;;;;;2.10;0.80;;;;;;;;;;5074213;28;20021;-57
2023/04/10 13:44:50;;;;;;;2.17;1.00;;;;;;;;;;5072779;28;20064;-57
2023/04/10 13:47:16;;;;;;;1.73;0.90;;;;;;;;;;5074706;28;20112;-57
2023/04/10 13:49:41;;;;;;;0.90;0.50;;;;;;;;;;5074122;28;20028;-57
2023/04/10 13:52:07;;;;;;;1.48;0.70;;;;;;;;;;5074157;28;20108;-57
2023/04/10 13:57:38;;;;;;;2.20;0.90;;;;;;;;;;5074283;28;20469;-58
2023/04/10 14:00:04;;;;;;;1.90;1.00;;;;;;;;;;5074395;28;20028;-58
2023/04/10 14:02:30;;;;;;;1.10;0.60;;;;;;;;;;5073957;28;20029;-59
2023/04/10 14:04:56;;;;;;;0.93;0.52;;;;;;;;;;5073915;28;20035;-58
2023/04/10 14:07:22;;;;;;;3.05;0.93;;;;;;;;;;5074133;28;20104;-58
2023/04/10 14:09:48;;;;;;;1.73;0.90;;;;;;;;;;5073551;28;20055;-58
2023/04/10 14:12:18;;;;;;;2.00;0.95;;;;;;;;;;5074310;28;20028;-58
2023/04/10 14:14:44;;;;;;;1.65;0.98;;;;;;;;;;5073952;28;20090;-58
2023/04/10 14:17:10;;;;;;;1.92;1.08;;;;;;;;;;5074288;28;20370;-58
2023/04/10 14:19:37;;;;;;;1.77;0.88;;;;;;;;;;5074229;28;20021;-58
2023/04/10 14:22:03;;;;;;;1.60;0.95;;;;;;;;;;5073582;28;20016;-58
2023/04/10 14:24:29;;;;;;;2.10;1.08;;;;;;;;;;5074160;28;20028;-58
2023/04/10 14:26:57;;;;;;;1.80;0.85;;;;;;;;;;5074036;28;20144;-58
2023/04/10 14:29:23;;;;;;;2.40;1.02;;;;;;;;;;5073618;28;20040;-58
2023/04/10 14:31:52;;;;;;;1.95;0.88;;;;;;;;;;5073752;28;20085;-58
2023/04/10 14:34:18;;;;;;;1.45;0.65;;;;;;;;;;5073601;28;20031;-58
2023/04/10 14:36:44;;;;;;;2.13;0.90;;;;;;;;;;5076002;28;20020;-58
2023/04/10 14:39:10;;;;;;;3.70;2.13;;;;;;;;;;5077754;28;20111;-58
2023/04/10 14:41:36;;;;;;;1.40;0.85;;;;;;;;;;5077646;28;20474;-58
2023/04/10 14:44:02;;;;;;;2.50;0.90;;;;;;;;;;5077816;28;20017;-58
2023/04/10 14:46:28;;;;;;;0.98;0.47;;;;;;;;;;5077987;28;20070;-58